Time;durP1;ratioP1;P1;durP2;ratioP2;P2;SDS_P1;SDS_P2;PMS_P1;PMS_P2;Temp;Humidity;BMP_temperature;BMP_pressure;BME280_temperature;BME280_humidity;BME280_pressure;Samples;Min_cycle;Max_cycle;Signal;HPM_P1;HPM_P2
2024/04/03 00:02:03;;;;;;;;;2.00;2.00;;;;;;;;5099719;27;47167;-77
2024/04/03 00:04:28;;;;;;;;;1.33;1.33;;;;;;;;5101117;27;45281;-77
2024/04/03 00:06:53;;;;;;;;;2.33;1.67;;;;;;;;5101163;27;45213;-78
2024/04/03 00:09:19;;;;;;;;;1.67;1.67;;;;;;;;5099315;27;46952;-77
2024/04/03 00:11:44;;;;;;;;;1.67;1.67;;;;;;;;5100888;27;45362;-77
2024/04/03 00:14:09;;;;;;;;;2.00;1.00;;;;;;;;5099488;27;45297;-78
2024/04/03 00:16:34;;;;;;;;;1.33;1.33;;;;;;;;5099776;27;45276;-78
2024/04/03 00:18:59;;;;;;;;;1.00;1.00;;;;;;;;5100919;27;45560;-77
2024/04/03 00:21:24;;;;;;;;;1.00;1.00;;;;;;;;5100787;27;46284;-77
2024/04/03 00:23:50;;;;;;;;;2.00;2.00;;;;;;;;5100697;27;45349;-77
2024/04/03 00:26:15;;;;;;;;;2.67;1.00;;;;;;;;5100353;27;45576;-77
2024/04/03 00:28:40;;;;;;;;;2.00;2.00;;;;;;;;5098849;27;46325;-77
2024/04/03 00:31:05;;;;;;;;;2.00;1.33;;;;;;;;5100712;27;46129;-77
2024/04/03 00:33:30;;;;;;;;;3.00;2.00;;;;;;;;5099169;27;45483;-77
2024/04/03 00:35:55;;;;;;;;;1.00;1.00;;;;;;;;5099209;27;45405;-78
2024/04/03 00:38:21;;;;;;;;;1.00;1.00;;;;;;;;5100676;27;45575;-78
2024/04/03 00:40:55;;;;;;;;;2.00;2.00;;;;;;;;5099016;27;48324;-78
2024/04/03 00:43:20;;;;;;;;;1.00;1.00;;;;;;;;5100574;27;45440;-78
2024/04/03 00:45:45;;;;;;;;;2.00;1.33;;;;;;;;5100801;27;45298;-78
2024/04/03 00:48:11;;;;;;;;;1.00;1.00;;;;;;;;5096504;27;47417;-77
2024/04/03 00:50:36;;;;;;;;;4.00;2.00;;;;;;;;5078320;28;47432;-77
2024/04/03 00:53:01;;;;;;;;;1.33;1.33;;;;;;;;5079657;28;45259;-77
2024/04/03 00:55:26;;;;;;;;;2.33;1.00;;;;;;;;5078529;28;45390;-77
2024/04/03 00:57:52;;;;;;;;;0.67;0.67;;;;;;;;5092031;27;45216;-78
2024/04/03 01:00:17;;;;;;;;;2.00;0.67;;;;;;;;5100396;27;46667;-78
2024/04/03 01:02:43;;;;;;;;;1.00;1.00;;;;;;;;5100368;27;45330;-79
2024/04/03 01:05:08;;;;;;;;;2.00;2.00;;;;;;;;5100432;27;45403;-78
2024/04/03 01:07:35;;;;;;;;;1.33;1.00;;;;;;;;5085051;27;46141;-78
2024/04/03 01:10:00;;;;;;;;;2.00;2.00;;;;;;;;5079243;28;45314;-78
2024/04/03 01:12:27;;;;;;;;;2.00;1.00;;;;;;;;5079270;28;45424;-78
2024/04/03 01:14:53;;;;;;;;;1.00;1.00;;;;;;;;5078327;28;45347;-78
2024/04/03 01:17:18;;;;;;;;;1.00;1.00;;;;;;;;5079640;28;45224;-78
2024/04/03 01:19:43;;;;;;;;;2.00;2.00;;;;;;;;5079397;28;45411;-78
2024/04/03 01:22:08;;;;;;;;;1.67;1.67;;;;;;;;5078252;28;45861;-78
2024/04/03 01:24:33;;;;;;;;;1.67;1.67;;;;;;;;5079504;28;45153;-78
2024/04/03 01:26:58;;;;;;;;;2.67;1.00;;;;;;;;5077992;28;46167;-78
2024/04/03 01:29:23;;;;;;;;;1.33;1.33;;;;;;;;5079478;28;45303;-78
2024/04/03 01:31:49;;;;;;;;;1.00;1.00;;;;;;;;5079481;28;45415;-78
2024/04/03 01:34:14;;;;;;;;;2.00;2.00;;;;;;;;5079407;28;45165;-78
2024/04/03 01:36:39;;;;;;;;;1.00;1.00;;;;;;;;5077939;28;45987;-78
2024/04/03 01:39:04;;;;;;;;;2.00;2.00;;;;;;;;5081063;28;45290;-78
2024/04/03 01:41:29;;;;;;;;;3.00;2.00;;;;;;;;5083254;28;45226;-78
2024/04/03 01:43:54;;;;;;;;;0.00;0.00;;;;;;;;5083026;28;45502;-78
2024/04/03 01:46:20;;;;;;;;;1.00;1.00;;;;;;;;5081399;28;47196;-77
2024/04/03 01:48:45;;;;;;;;;1.33;1.33;;;;;;;;5082477;28;45340;-77
2024/04/03 01:51:10;;;;;;;;;1.00;1.00;;;;;;;;5081231;28;45576;-77
2024/04/03 01:53:35;;;;;;;;;1.00;1.00;;;;;;;;5082625;28;45280;-76
2024/04/03 01:56:00;;;;;;;;;2.00;2.00;;;;;;;;5082554;28;45533;-77
2024/04/03 01:58:26;;;;;;;;;1.00;1.00;;;;;;;;5098305;27;46977;-76
2024/04/03 02:00:51;;;;;;;;;1.33;1.33;;;;;;;;5103310;27;45386;-77
2024/04/03 02:03:20;;;;;;;;;1.67;1.67;;;;;;;;5101771;27;45350;-77
2024/04/03 02:05:46;;;;;;;;;1.00;1.00;;;;;;;;5103227;27;45464;-76
2024/04/03 02:08:12;;;;;;;;;1.00;1.00;;;;;;;;5101438;27;47727;-77
2024/04/03 02:10:37;;;;;;;;;2.00;2.00;;;;;;;;5102906;27;45224;-76
2024/04/03 02:13:02;;;;;;;;;2.00;1.67;;;;;;;;5101703;27;45424;-77
2024/04/03 02:15:27;;;;;;;;;1.00;1.00;;;;;;;;5102999;27;45302;-77
2024/04/03 02:17:52;;;;;;;;;1.00;1.00;;;;;;;;5101454;27;48119;-77
2024/04/03 02:20:18;;;;;;;;;3.00;2.00;;;;;;;;5101503;27;45338;-77
2024/04/03 02:22:45;;;;;;;;;1.00;1.00;;;;;;;;5103051;27;45203;-76
2024/04/03 02:25:10;;;;;;;;;2.00;1.33;;;;;;;;5102474;27;45250;-76
2024/04/03 02:27:35;;;;;;;;;2.00;2.00;;;;;;;;5101262;27;46892;-76
2024/04/03 02:30:00;;;;;;;;;2.00;2.00;;;;;;;;5101610;27;45212;-77
2024/04/03 02:32:26;;;;;;;;;2.00;2.00;;;;;;;;5103013;27;45936;-77
2024/04/03 02:34:54;;;;;;;;;1.00;1.00;;;;;;;;5102524;27;45484;-77
2024/04/03 02:37:19;;;;;;;;;0.00;0.00;;;;;;;;5102680;27;45339;-76
2024/04/03 02:39:44;;;;;;;;;1.67;1.00;;;;;;;;5102475;27;45304;-76
2024/04/03 02:42:10;;;;;;;;;3.00;1.00;;;;;;;;5102709;27;45292;-76
2024/04/03 02:44:35;;;;;;;;;1.00;1.00;;;;;;;;5101241;27;45765;-76
2024/04/03 02:47:00;;;;;;;;;0.00;0.00;;;;;;;;5100984;27;48171;-76
2024/04/03 02:49:25;;;;;;;;;1.00;1.00;;;;;;;;5100717;27;45953;-77
2024/04/03 02:51:50;;;;;;;;;1.00;1.00;;;;;;;;5102309;27;45284;-77
2024/04/03 02:54:15;;;;;;;;;2.00;2.00;;;;;;;;5096860;27;45828;-77
2024/04/03 02:56:40;;;;;;;;;1.00;1.00;;;;;;;;5082653;27;47947;-76
2024/04/03 02:59:06;;;;;;;;;1.00;1.00;;;;;;;;5102387;27;45226;-76
2024/04/03 03:01:31;;;;;;;;;0.67;0.67;;;;;;;;5102747;27;45346;-75
2024/04/03 03:03:56;;;;;;;;;2.00;2.00;;;;;;;;5101052;27;46069;-76
2024/04/03 03:06:22;;;;;;;;;1.67;1.67;;;;;;;;5102627;27;45277;-76
2024/04/03 03:08:48;;;;;;;;;1.00;1.00;;;;;;;;5101039;27;45243;-77
2024/04/03 03:11:13;;;;;;;;;1.00;0.00;;;;;;;;5100826;27;45271;-76
2024/04/03 03:13:39;;;;;;;;;1.00;1.00;;;;;;;;5101819;27;45231;-76
2024/04/03 03:16:04;;;;;;;;;1.00;1.00;;;;;;;;5104134;27;45372;-76
2024/04/03 03:18:31;;;;;;;;;1.00;1.00;;;;;;;;5101603;27;45260;-76
2024/04/03 03:20:56;;;;;;;;;1.00;1.00;;;;;;;;5102996;27;45328;-76
2024/04/03 03:23:22;;;;;;;;;0.00;0.00;;;;;;;;5102506;27;45305;-76
2024/04/03 03:25:48;;;;;;;;;1.00;1.00;;;;;;;;5103085;27;45566;-75
2024/04/03 03:28:13;;;;;;;;;1.00;1.00;;;;;;;;5102995;27;45347;-75
2024/04/03 03:30:39;;;;;;;;;0.33;0.33;;;;;;;;5101635;27;45313;-75
2024/04/03 03:33:04;;;;;;;;;1.67;0.67;;;;;;;;5103465;27;45532;-75
2024/04/03 03:35:30;;;;;;;;;2.00;1.00;;;;;;;;5100118;27;47388;-76
2024/04/03 03:37:56;;;;;;;;;1.00;1.00;;;;;;;;5103817;27;45381;-75
2024/04/03 03:40:21;;;;;;;;;1.33;0.67;;;;;;;;5101479;27;45408;-76
2024/04/03 03:42:46;;;;;;;;;0.33;0.33;;;;;;;;5100603;27;46058;-76
2024/04/03 03:45:20;;;;;;;;;1.00;1.00;;;;;;;;5102101;27;45226;-76
2024/04/03 03:47:46;;;;;;;;;0.00;0.00;;;;;;;;5102125;27;45248;-77
2024/04/03 03:52:55;;;;;;;;;2.67;2.67;;;;;;;;5101017;27;45254;-76
2024/04/03 03:55:20;;;;;;;;;1.00;1.00;;;;;;;;5100033;27;47246;-75
2024/04/03 03:57:45;;;;;;;;;1.00;1.00;;;;;;;;5089766;27;45957;-76
2024/04/03 04:00:11;;;;;;;;;1.00;1.00;;;;;;;;5081526;28;45675;-76
2024/04/03 04:02:36;;;;;;;;;1.00;1.00;;;;;;;;5078705;28;46135;-76
2024/04/03 04:05:02;;;;;;;;;0.67;0.33;;;;;;;;5081287;28;46922;-76
2024/04/03 04:07:27;;;;;;;;;1.00;1.00;;;;;;;;5080249;28;45293;-75
2024/04/03 04:09:52;;;;;;;;;1.00;0.00;;;;;;;;5081163;28;45214;-76
2024/04/03 04:12:18;;;;;;;;;1.00;1.00;;;;;;;;5082186;28;45117;-75
2024/04/03 04:14:47;;;;;;;;;2.00;1.00;;;;;;;;5081262;28;45204;-75
2024/04/03 04:17:13;;;;;;;;;0.33;0.33;;;;;;;;5081949;28;45311;-76
2024/04/03 04:19:38;;;;;;;;;2.00;2.00;;;;;;;;5081101;28;45312;-75
2024/04/03 04:22:03;;;;;;;;;1.00;1.00;;;;;;;;5080132;28;45885;-75
2024/04/03 04:24:28;;;;;;;;;0.00;0.00;;;;;;;;5080925;28;45451;-76
2024/04/03 04:26:59;;;;;;;;;1.00;1.00;;;;;;;;5081746;28;45291;-74
2024/04/03 04:29:24;;;;;;;;;0.00;0.00;;;;;;;;5081468;28;45161;-75
2024/04/03 04:31:50;;;;;;;;;1.00;1.00;;;;;;;;5081134;28;45309;-75
2024/04/03 04:34:15;;;;;;;;;0.67;0.67;;;;;;;;5080456;28;46262;-75
2024/04/03 04:36:40;;;;;;;;;1.67;0.67;;;;;;;;5080821;28;45391;-75
2024/04/03 04:39:05;;;;;;;;;0.67;0.67;;;;;;;;5080630;28;45323;-74
2024/04/03 04:41:30;;;;;;;;;0.67;0.67;;;;;;;;5081157;28;45129;-75
2024/04/03 04:43:55;;;;;;;;;1.00;1.00;;;;;;;;5081375;28;46360;-75
2024/04/03 04:46:21;;;;;;;;;0.00;0.00;;;;;;;;5080584;28;45201;-75
2024/04/03 04:48:46;;;;;;;;;0.00;0.00;;;;;;;;5080629;28;45497;-75
2024/04/03 04:51:11;;;;;;;;;1.00;1.00;;;;;;;;5080434;28;45371;-75
2024/04/03 04:53:36;;;;;;;;;0.00;0.00;;;;;;;;5080511;28;45691;-75
2024/04/03 04:56:03;;;;;;;;;1.00;1.00;;;;;;;;5079362;28;45350;-75
2024/04/03 04:58:28;;;;;;;;;0.00;0.00;;;;;;;;5097781;27;45380;-75
2024/04/03 05:01:01;;;;;;;;;1.00;1.00;;;;;;;;5100782;27;45465;-76
2024/04/03 05:03:26;;;;;;;;;0.00;0.00;;;;;;;;5099131;27;47121;-76
2024/04/03 05:05:51;;;;;;;;;2.00;1.00;;;;;;;;5099504;27;45339;-76
2024/04/03 05:08:18;;;;;;;;;1.00;1.00;;;;;;;;5100879;27;45530;-76
2024/04/03 05:10:47;;;;;;;;;0.00;0.00;;;;;;;;5100023;27;45355;-75
2024/04/03 05:13:13;;;;;;;;;1.33;0.00;;;;;;;;5099734;27;45702;-75
2024/04/03 05:15:38;;;;;;;;;1.00;1.00;;;;;;;;5100504;27;45183;-76
2024/04/03 05:18:03;;;;;;;;;0.00;0.00;;;;;;;;5099414;27;45312;-75
2024/04/03 05:20:28;;;;;;;;;0.00;0.00;;;;;;;;5084115;27;45249;-75
2024/04/03 05:22:54;;;;;;;;;1.00;1.00;;;;;;;;5079629;28;46203;-75
2024/04/03 05:25:20;;;;;;;;;1.00;1.00;;;;;;;;5083227;28;45476;-76
2024/04/03 05:27:45;;;;;;;;;1.00;1.00;;;;;;;;5084401;28;45220;-75
2024/04/03 05:30:10;;;;;;;;;0.33;0.33;;;;;;;;5083923;28;46413;-75
2024/04/03 05:32:35;;;;;;;;;0.00;0.00;;;;;;;;5081352;28;45328;-76
2024/04/03 05:35:00;;;;;;;;;0.00;0.00;;;;;;;;5083863;28;45413;-75
2024/04/03 05:37:26;;;;;;;;;0.00;0.00;;;;;;;;5082829;28;45343;-75
2024/04/03 05:39:51;;;;;;;;;1.00;1.00;;;;;;;;5088244;28;45505;-76
2024/04/03 05:42:16;;;;;;;;;1.00;0.00;;;;;;;;5081385;28;47558;-75
2024/04/03 05:44:42;;;;;;;;;0.00;0.00;;;;;;;;5086172;28;45302;-77
2024/04/03 05:47:07;;;;;;;;;0.00;0.00;;;;;;;;5087830;28;45316;-76
2024/04/03 05:49:32;;;;;;;;;0.00;0.00;;;;;;;;5081500;28;45238;-77
2024/04/03 05:51:57;;;;;;;;;0.00;0.00;;;;;;;;5082440;28;45541;-76
2024/04/03 05:54:23;;;;;;;;;0.00;0.00;;;;;;;;5082130;28;45321;-76
2024/04/03 05:56:48;;;;;;;;;0.00;0.00;;;;;;;;5087198;27;45369;-76
2024/04/03 05:59:13;;;;;;;;;0.00;0.00;;;;;;;;5104616;27;45244;-75
2024/04/03 06:01:38;;;;;;;;;0.00;0.00;;;;;;;;5103078;27;47351;-77
2024/04/03 06:04:06;;;;;;;;;1.00;1.00;;;;;;;;5091479;27;45305;-76
2024/04/03 06:06:31;;;;;;;;;0.67;0.67;;;;;;;;5069115;28;45237;-76
2024/04/03 06:08:56;;;;;;;;;1.33;0.00;;;;;;;;5057859;28;46025;-75
2024/04/03 06:11:22;;;;;;;;;0.00;0.00;;;;;;;;5059683;28;45315;-76
2024/04/03 06:13:47;;;;;;;;;0.33;0.00;;;;;;;;5058941;28;45228;-76
2024/04/03 06:16:12;;;;;;;;;0.00;0.00;;;;;;;;5059198;28;45292;-78
2024/04/03 06:18:37;;;;;;;;;1.00;1.00;;;;;;;;5058707;28;45249;-78
2024/04/03 06:21:12;;;;;;;;;0.00;0.00;;;;;;;;5057290;28;47038;-78
2024/04/03 06:23:37;;;;;;;;;0.33;0.33;;;;;;;;5057344;28;45945;-78
2024/04/03 06:26:02;;;;;;;;;0.00;0.00;;;;;;;;5059224;28;45430;-78
2024/04/03 06:28:28;;;;;;;;;0.33;0.00;;;;;;;;5061994;28;45449;-78
2024/04/03 06:30:53;;;;;;;;;0.00;0.00;;;;;;;;5060302;28;47145;-77
2024/04/03 06:33:18;;;;;;;;;0.00;0.00;;;;;;;;5060756;28;45531;-78
2024/04/03 06:35:44;;;;;;;;;0.33;0.00;;;;;;;;5060901;28;45425;-78
2024/04/03 06:38:09;;;;;;;;;1.00;0.00;;;;;;;;5060555;28;46170;-77
2024/04/03 06:40:34;;;;;;;;;0.00;0.00;;;;;;;;5060425;28;48105;-78
2024/04/03 06:43:03;;;;;;;;;0.00;0.00;;;;;;;;5069874;28;45453;-77
2024/04/03 06:45:28;;;;;;;;;0.00;0.00;;;;;;;;5069729;28;45317;-78
2024/04/03 06:47:54;;;;;;;;;0.00;0.00;;;;;;;;5060251;28;46156;-77
2024/04/03 06:50:19;;;;;;;;;1.00;1.00;;;;;;;;5072786;28;47140;-77
2024/04/03 06:52:44;;;;;;;;;0.00;0.00;;;;;;;;5085680;28;45345;-77
2024/04/03 06:55:09;;;;;;;;;1.00;0.00;;;;;;;;5082145;28;46596;-77
2024/04/03 06:57:35;;;;;;;;;0.00;0.00;;;;;;;;5098717;27;45220;-77
2024/04/03 07:00:00;;;;;;;;;1.00;0.00;;;;;;;;5108548;27;47760;-76
2024/04/03 07:02:25;;;;;;;;;0.67;0.67;;;;;;;;5110251;27;45336;-77
2024/04/03 07:04:50;;;;;;;;;0.67;0.67;;;;;;;;5108250;27;45380;-76
2024/04/03 07:07:15;;;;;;;;;0.33;0.33;;;;;;;;5106415;27;47092;-77
2024/04/03 07:09:41;;;;;;;;;1.00;1.00;;;;;;;;5104885;27;48154;-77
2024/04/03 07:12:06;;;;;;;;;2.33;1.00;;;;;;;;5109265;27;45375;-77
2024/04/03 07:14:31;;;;;;;;;1.00;1.00;;;;;;;;5107193;27;45288;-77
2024/04/03 07:16:56;;;;;;;;;1.33;1.33;;;;;;;;5101664;27;45281;-77
2024/04/03 07:19:22;;;;;;;;;4.33;2.33;;;;;;;;5083370;28;46121;-77
2024/04/03 07:21:47;;;;;;;;;1.00;1.00;;;;;;;;5081880;28;45530;-77
2024/04/03 07:24:13;;;;;;;;;1.00;1.00;;;;;;;;5085109;28;45221;-77
2024/04/03 07:26:38;;;;;;;;;1.00;1.00;;;;;;;;5086166;28;45290;-77
2024/04/03 07:29:04;;;;;;;;;3.00;2.00;;;;;;;;5084990;28;45507;-77
2024/04/03 07:31:29;;;;;;;;;1.00;1.00;;;;;;;;5081402;28;45339;-77
2024/04/03 07:33:54;;;;;;;;;2.33;2.33;;;;;;;;5077311;28;45306;-77
2024/04/03 07:36:21;;;;;;;;;2.00;1.00;;;;;;;;5063093;28;45272;-77
2024/04/03 07:38:46;;;;;;;;;1.67;1.67;;;;;;;;5060499;28;47333;-77
2024/04/03 07:41:12;;;;;;;;;2.00;2.00;;;;;;;;5062849;28;45339;-80
2024/04/03 07:43:37;;;;;;;;;2.00;2.00;;;;;;;;5082086;28;45649;-79
2024/04/03 07:46:03;;;;;;;;;2.33;2.33;;;;;;;;5081819;28;45422;-81
2024/04/03 07:48:28;;;;;;;;;2.00;2.00;;;;;;;;5084239;28;45368;-77
2024/04/03 07:51:00;;;;;;;;;3.33;2.00;;;;;;;;5083109;28;45402;-80
2024/04/03 07:53:25;;;;;;;;;3.33;3.33;;;;;;;;5082285;28;45219;-76
2024/04/03 07:55:51;;;;;;;;;3.00;2.33;;;;;;;;5092754;28;47522;-77
2024/04/03 07:58:16;;;;;;;;;3.33;2.67;;;;;;;;5107296;27;45362;-78
2024/04/03 08:00:41;;;;;;;;;2.67;2.00;;;;;;;;5106484;27;45367;-78
2024/04/03 08:03:06;;;;;;;;;2.33;2.33;;;;;;;;5112605;27;45389;-77
2024/04/03 08:05:32;;;;;;;;;2.00;2.00;;;;;;;;5101933;27;45293;-78
2024/04/03 08:07:57;;;;;;;;;1.33;1.33;;;;;;;;5098881;27;47141;-82
2024/04/03 08:10:22;;;;;;;;;1.00;1.00;;;;;;;;5100786;27;45416;-82
2024/04/03 08:12:47;;;;;;;;;0.67;0.67;;;;;;;;5101145;27;45342;-76
2024/04/03 08:15:14;;;;;;;;;0.33;0.33;;;;;;;;5101422;27;45471;-77
2024/04/03 08:17:39;;;;;;;;;1.67;1.67;;;;;;;;5100048;27;47197;-76
2024/04/03 08:20:04;;;;;;;;;0.67;0.67;;;;;;;;5100490;27;45341;-76
2024/04/03 08:22:30;;;;;;;;;0.67;0.67;;;;;;;;5101856;27;45767;-76
2024/04/03 08:24:55;;;;;;;;;1.33;0.67;;;;;;;;5101208;27;45227;-76
2024/04/03 08:27:20;;;;;;;;;1.00;1.00;;;;;;;;5100328;27;46974;-77
2024/04/03 08:29:49;;;;;;;;;0.33;0.33;;;;;;;;5102236;27;45751;-77
2024/04/03 08:32:17;;;;;;;;;1.00;1.00;;;;;;;;5100197;27;45180;-77
2024/04/03 08:34:43;;;;;;;;;2.33;2.33;;;;;;;;5101767;27;45313;-77
2024/04/03 08:37:08;;;;;;;;;2.00;1.33;;;;;;;;5103067;27;46128;-78
2024/04/03 08:39:34;;;;;;;;;2.00;2.00;;;;;;;;5101617;27;45322;-77
2024/04/03 08:42:01;;;;;;;;;1.33;1.33;;;;;;;;5102975;27;45275;-76
2024/04/03 08:44:28;;;;;;;;;0.33;0.33;;;;;;;;5102773;27;45313;-77
2024/04/03 08:46:53;;;;;;;;;1.00;1.00;;;;;;;;5105093;27;45360;-77
2024/04/03 08:49:19;;;;;;;;;1.00;1.00;;;;;;;;5099234;27;45401;-77
2024/04/03 08:51:58;;;;;;;;;0.67;0.67;;;;;;;;5101885;27;45218;-77
2024/04/03 08:54:25;;;;;;;;;1.67;1.00;;;;;;;;5102148;27;45341;-77
2024/04/03 08:56:50;;;;;;;;;1.00;1.00;;;;;;;;5098140;27;46557;-77
2024/04/03 08:59:16;;;;;;;;;1.00;1.00;;;;;;;;5085530;28;45437;-77
2024/04/03 09:01:41;;;;;;;;;1.67;1.00;;;;;;;;5092157;28;45465;-77
2024/04/03 09:04:09;;;;;;;;;1.67;1.00;;;;;;;;5087921;27;45271;-76
2024/04/03 09:06:38;;;;;;;;;0.00;0.00;;;;;;;;5090238;28;48050;-77
2024/04/03 09:09:03;;;;;;;;;2.00;2.00;;;;;;;;5089144;27;45397;-77
2024/04/03 09:11:29;;;;;;;;;1.00;0.00;;;;;;;;5073660;27;45298;-77
2024/04/03 09:13:54;;;;;;;;;2.00;2.00;;;;;;;;5059557;28;45345;-75
2024/04/03 09:16:21;;;;;;;;;4.00;2.00;;;;;;;;5059691;28;45418;-75
2024/04/03 09:18:46;;;;;;;;;1.67;1.33;;;;;;;;5059616;28;45296;-76
2024/04/03 09:21:15;;;;;;;;;0.00;0.00;;;;;;;;5060313;28;45330;-76
2024/04/03 09:23:40;;;;;;;;;2.33;1.00;;;;;;;;5058918;28;46396;-76
2024/04/03 09:26:06;;;;;;;;;0.67;0.00;;;;;;;;5059403;28;46222;-74
2024/04/03 09:28:31;;;;;;;;;1.00;1.00;;;;;;;;5059354;28;45385;-76
2024/04/03 09:30:56;;;;;;;;;2.00;2.00;;;;;;;;5059586;28;45377;-76
2024/04/03 09:33:24;;;;;;;;;0.67;0.67;;;;;;;;5058146;28;46132;-76
2024/04/03 09:35:49;;;;;;;;;1.00;1.00;;;;;;;;5059162;28;46211;-75
2024/04/03 09:38:14;;;;;;;;;1.00;0.67;;;;;;;;5059452;28;45343;-76
2024/04/03 09:40:40;;;;;;;;;2.33;2.33;;;;;;;;5059425;28;45343;-77
2024/04/03 09:43:06;;;;;;;;;3.00;2.00;;;;;;;;5057916;28;46303;-79
2024/04/03 09:45:32;;;;;;;;;1.33;0.33;;;;;;;;5057740;28;49377;-76
2024/04/03 09:47:58;;;;;;;;;3.00;2.00;;;;;;;;5058029;28;45460;-76
2024/04/03 09:50:26;;;;;;;;;3.00;3.00;;;;;;;;5059331;28;45295;-76
2024/04/03 09:52:52;;;;;;;;;2.00;2.00;;;;;;;;5058833;28;45471;-76
2024/04/03 09:55:20;;;;;;;;;2.00;1.67;;;;;;;;5058773;28;45244;-75
2024/04/03 09:57:46;;;;;;;;;0.00;0.00;;;;;;;;5081148;27;45307;-75
2024/04/03 10:00:12;;;;;;;;;4.00;2.33;;;;;;;;5100758;27;45332;-76
2024/04/03 10:02:46;;;;;;;;;1.33;1.33;;;;;;;;5100463;27;46297;-78
2024/04/03 10:05:11;;;;;;;;;2.33;2.33;;;;;;;;5103092;27;45384;-76
2024/04/03 10:07:36;;;;;;;;;2.00;2.00;;;;;;;;5103412;27;45424;-77
2024/04/03 10:10:02;;;;;;;;;3.25;2.00;;;;;;;;5102797;27;45272;-76
2024/04/03 10:12:28;;;;;;;;;1.00;1.00;;;;;;;;5103102;27;45342;-76
2024/04/03 10:14:56;;;;;;;;;8.00;5.00;;;;;;;;5102842;27;45493;-76
2024/04/03 10:17:22;;;;;;;;;4.67;1.67;;;;;;;;5100395;27;45327;-75
2024/04/03 10:19:47;;;;;;;;;6.67;4.00;;;;;;;;5101413;27;45354;-75
2024/04/03 10:22:14;;;;;;;;;2.00;2.00;;;;;;;;5102568;27;45321;-75
2024/04/03 10:24:42;;;;;;;;;4.00;3.67;;;;;;;;5102582;27;46054;-73
2024/04/03 10:27:07;;;;;;;;;4.00;2.00;;;;;;;;5102704;27;45344;-74
2024/04/03 10:29:32;;;;;;;;;2.25;1.50;;;;;;;;5102835;27;45585;-75
2024/04/03 10:31:58;;;;;;;;;2.00;2.00;;;;;;;;5101297;27;47590;-74
2024/04/03 10:34:23;;;;;;;;;4.00;3.67;;;;;;;;5102464;27;45334;-75
2024/04/03 10:36:48;;;;;;;;;5.33;3.00;;;;;;;;5101509;27;45699;-74
2024/04/03 10:39:14;;;;;;;;;12.00;10.33;;;;;;;;5102910;27;45243;-74
2024/04/03 10:41:39;;;;;;;;;2.00;2.00;;;;;;;;5089610;27;45745;-74
2024/04/03 10:44:09;;;;;;;;;5.00;5.00;;;;;;;;5081954;28;45324;-74
2024/04/03 10:46:34;;;;;;;;;2.00;2.00;;;;;;;;5081387;28;45361;-74
2024/04/03 10:49:00;;;;;;;;;3.00;3.00;;;;;;;;5081426;28;45302;-75
2024/04/03 10:51:26;;;;;;;;;3.67;3.67;;;;;;;;5082104;28;45283;-75
2024/04/03 10:53:51;;;;;;;;;2.67;1.00;;;;;;;;5081603;28;45377;-75
2024/04/03 10:56:16;;;;;;;;;7.00;4.33;;;;;;;;5081941;28;45294;-76
2024/04/03 10:58:44;;;;;;;;;1.33;1.33;;;;;;;;5101339;27;45445;-76
2024/04/03 11:01:09;;;;;;;;;3.33;2.33;;;;;;;;5100985;27;46490;-75
2024/04/03 11:03:37;;;;;;;;;3.00;1.67;;;;;;;;5102263;27;45306;-75
2024/04/03 11:06:03;;;;;;;;;5.00;3.33;;;;;;;;5102274;27;45264;-76
2024/04/03 11:08:28;;;;;;;;;2.25;2.25;;;;;;;;5102042;27;45243;-76
2024/04/03 11:11:09;;;;;;;;;6.67;4.67;;;;;;;;5100097;27;46911;-76
2024/04/03 11:13:34;;;;;;;;;5.33;4.33;;;;;;;;5100345;27;47161;-78
2024/04/03 11:16:00;;;;;;;;;5.75;4.00;;;;;;;;5107997;27;45273;-78
2024/04/03 11:18:28;;;;;;;;;4.25;1.50;;;;;;;;5112308;27;45365;-77
2024/04/03 11:20:53;;;;;;;;;2.00;2.00;;;;;;;;5111782;27;45481;-77
2024/04/03 11:23:19;;;;;;;;;3.50;1.00;;;;;;;;5108578;27;46206;-76
2024/04/03 11:25:44;;;;;;;;;7.00;3.00;;;;;;;;5104134;27;45321;-78
2024/04/03 11:28:09;;;;;;;;;2.50;2.50;;;;;;;;5082911;28;45307;-78
2024/04/03 11:30:38;;;;;;;;;2.67;2.00;;;;;;;;5071504;28;45333;-76
2024/04/03 11:33:03;;;;;;;;;1.75;1.00;;;;;;;;5080868;28;47525;-77
2024/04/03 11:35:28;;;;;;;;;3.75;1.50;;;;;;;;5082439;28;45546;-78
2024/04/03 11:37:54;;;;;;;;;3.00;2.00;;;;;;;;5081907;28;45484;-77
2024/04/03 11:40:19;;;;;;;;;3.25;2.00;;;;;;;;5082277;28;45410;-76
2024/04/03 11:42:44;;;;;;;;;1.00;1.00;;;;;;;;5081401;28;45240;-77
2024/04/03 11:45:09;;;;;;;;;0.00;0.00;;;;;;;;5081556;28;45276;-75
2024/04/03 11:47:36;;;;;;;;;1.75;0.75;;;;;;;;5080216;28;45492;-76
2024/04/03 11:50:03;;;;;;;;;1.00;1.00;;;;;;;;5080761;28;45387;-76
2024/04/03 11:52:28;;;;;;;;;1.50;1.50;;;;;;;;5080142;28;47283;-76
2024/04/03 11:54:55;;;;;;;;;2.00;2.00;;;;;;;;5079800;28;46190;-76
2024/04/03 11:57:20;;;;;;;;;0.75;0.50;;;;;;;;5085782;27;45565;-76
2024/04/03 11:59:46;;;;;;;;;2.75;2.75;;;;;;;;5100234;27;45383;-77
2024/04/03 12:02:11;;;;;;;;;2.00;2.00;;;;;;;;5100699;27;46041;-76
2024/04/03 12:04:36;;;;;;;;;3.25;1.75;;;;;;;;5100513;27;45449;-75
2024/04/03 12:07:01;;;;;;;;;0.00;0.00;;;;;;;;5100722;27;45325;-76
2024/04/03 12:09:27;;;;;;;;;1.00;1.00;;;;;;;;5098524;27;47575;-77
2024/04/03 12:11:52;;;;;;;;;1.50;1.50;;;;;;;;5100957;27;45324;-76
2024/04/03 12:14:17;;;;;;;;;0.00;0.00;;;;;;;;5101368;27;45438;-76
2024/04/03 12:16:42;;;;;;;;;0.75;0.75;;;;;;;;5101415;27;45317;-77
2024/04/03 12:19:16;;;;;;;;;0.75;0.25;;;;;;;;5099484;27;47100;-77
2024/04/03 12:21:41;;;;;;;;;1.00;1.00;;;;;;;;5100142;27;48364;-77
2024/04/03 12:24:07;;;;;;;;;1.00;1.00;;;;;;;;5097169;27;45549;-76
2024/04/03 12:26:33;;;;;;;;;1.00;1.00;;;;;;;;5099778;27;45429;-76
2024/04/03 12:28:58;;;;;;;;;1.00;1.00;;;;;;;;5101684;27;45356;-76
2024/04/03 12:31:23;;;;;;;;;3.00;3.00;;;;;;;;5101050;27;45321;-76
2024/04/03 12:33:49;;;;;;;;;3.50;3.50;;;;;;;;5101092;27;45234;-76
2024/04/03 12:36:14;;;;;;;;;1.00;1.00;;;;;;;;5099990;27;45391;-76
2024/04/03 12:38:39;;;;;;;;;0.50;0.25;;;;;;;;5100731;27;45344;-75
2024/04/03 12:41:04;;;;;;;;;1.00;0.00;;;;;;;;5100325;27;48379;-76
2024/04/03 12:43:29;;;;;;;;;2.75;1.50;;;;;;;;5099692;27;45799;-77
2024/04/03 12:45:56;;;;;;;;;1.50;0.50;;;;;;;;5099922;27;45312;-76
2024/04/03 12:48:21;;;;;;;;;4.25;1.50;;;;;;;;5100781;27;45414;-77
2024/04/03 12:50:46;;;;;;;;;0.00;0.00;;;;;;;;5099782;27;48474;-76
2024/04/03 12:53:11;;;;;;;;;0.00;0.00;;;;;;;;5099942;27;45422;-76
2024/04/03 12:55:37;;;;;;;;;1.75;1.50;;;;;;;;5100824;27;45530;-76
2024/04/03 12:58:02;;;;;;;;;0.00;0.00;;;;;;;;5085408;27;46457;-77
2024/04/03 13:00:27;;;;;;;;;2.00;0.50;;;;;;;;5080445;28;46418;-77
2024/04/03 13:02:53;;;;;;;;;1.25;0.75;;;;;;;;5080251;28;45441;-76
2024/04/03 13:05:18;;;;;;;;;0.00;0.00;;;;;;;;5082028;28;45259;-75
2024/04/03 13:07:43;;;;;;;;;1.00;1.00;;;;;;;;5080249;28;45366;-77
2024/04/03 13:10:08;;;;;;;;;1.00;1.00;;;;;;;;5080967;28;46195;-76
2024/04/03 13:12:34;;;;;;;;;1.00;1.00;;;;;;;;5079290;28;45362;-76
2024/04/03 13:14:59;;;;;;;;;1.00;1.00;;;;;;;;5079959;28;45167;-77
2024/04/03 13:17:24;;;;;;;;;0.75;0.00;;;;;;;;5080680;28;45387;-77
2024/04/03 13:19:50;;;;;;;;;2.00;1.00;;;;;;;;5078385;28;48305;-77
2024/04/03 13:22:16;;;;;;;;;0.75;0.75;;;;;;;;5081560;28;45418;-75
2024/04/03 13:24:41;;;;;;;;;2.00;2.00;;;;;;;;5084257;28;45357;-76
2024/04/03 13:27:07;;;;;;;;;1.00;0.00;;;;;;;;5088205;28;45628;-76
2024/04/03 13:29:32;;;;;;;;;0.25;0.25;;;;;;;;5079616;28;46245;-75
2024/04/03 13:31:58;;;;;;;;;0.00;0.00;;;;;;;;5079656;28;45334;-77
2024/04/03 13:34:23;;;;;;;;;0.25;0.25;;;;;;;;5080483;28;45299;-77
2024/04/03 13:36:48;;;;;;;;;1.00;0.00;;;;;;;;5082170;28;46153;-79
2024/04/03 13:39:14;;;;;;;;;0.50;0.00;;;;;;;;5083779;28;46271;-79
2024/04/03 13:41:39;;;;;;;;;0.00;0.00;;;;;;;;5083561;28;45110;-80
2024/04/03 13:44:04;;;;;;;;;0.50;0.00;;;;;;;;5083085;28;45259;-79
2024/04/03 13:46:30;;;;;;;;;0.00;0.00;;;;;;;;5083028;28;45432;-80
2024/04/03 13:48:55;;;;;;;;;0.00;0.00;;;;;;;;5082669;28;45252;-78
2024/04/03 13:51:20;;;;;;;;;0.00;0.00;;;;;;;;5078110;28;46044;-79
2024/04/03 13:53:45;;;;;;;;;0.00;0.00;;;;;;;;5070853;28;45504;-78
2024/04/03 13:56:11;;;;;;;;;1.00;0.00;;;;;;;;5066047;28;47251;-79
2024/04/03 13:58:36;;;;;;;;;0.00;0.00;;;;;;;;5099077;27;46065;-76
2024/04/03 14:01:01;;;;;;;;;0.00;0.00;;;;;;;;5070979;28;45538;-79
2024/04/03 14:03:33;;;;;;;;;0.00;0.00;;;;;;;;5077746;28;45369;-75
2024/04/03 14:06:04;;;;;;;;;0.00;0.00;;;;;;;;5066553;28;45477;-78
2024/04/03 14:08:29;;;;;;;;;1.00;0.50;;;;;;;;5063410;28;45365;-76
2024/04/03 14:10:54;;;;;;;;;0.75;0.00;;;;;;;;5062563;28;45362;-74
2024/04/03 14:13:19;;;;;;;;;0.00;0.00;;;;;;;;5062376;28;45338;-75
2024/04/03 14:15:44;;;;;;;;;0.00;0.00;;;;;;;;5061189;28;46105;-76
2024/04/03 14:18:19;;;;;;;;;1.00;0.00;;;;;;;;5060764;28;48175;-79
2024/04/03 14:20:45;;;;;;;;;0.75;0.00;;;;;;;;5060670;28;45736;-77
2024/04/03 14:23:10;;;;;;;;;0.00;0.00;;;;;;;;5060985;28;45311;-77
2024/04/03 14:25:42;;;;;;;;;1.75;1.00;;;;;;;;5061967;28;45361;-76
2024/04/03 14:28:07;;;;;;;;;1.00;1.00;;;;;;;;5064252;28;46069;-76
2024/04/03 14:30:34;;;;;;;;;0.50;0.50;;;;;;;;5062421;27;45546;-78
2024/04/03 14:32:59;;;;;;;;;3.50;1.50;;;;;;;;5080067;28;45669;-80
2024/04/03 14:35:24;;;;;;;;;1.00;1.00;;;;;;;;5078755;27;46286;-78
2024/04/03 14:37:55;;;;;;;;;0.00;0.00;;;;;;;;5069282;28;47499;-75